sensor_id;sensor_type;location;lat;lon;timestamp;pressure;altitude;pressure_sealevel;temperature;humidity
70229;BME280;57617;51.988;5.854;2023-04-27T00:01:05;101649.78;;;8.54;57.96
70229;BME280;57617;51.988;5.854;2023-04-27T00:03:31;101645.41;;;8.53;57.89
70229;BME280;57617;51.988;5.854;2023-04-27T00:05:56;101648.31;;;8.52;57.35
70229;BME280;57617;51.988;5.854;2023-04-27T00:08:21;101655.59;;;8.51;58.17
70229;BME280;57617;51.988;5.854;2023-04-27T00:10:47;101652.69;;;8.46;57.18
70229;BME280;57617;51.988;5.854;2023-04-27T00:13:12;101660.19;;;8.44;57.81
70229;BME280;57617;51.988;5.854;2023-04-27T00:15:37;101653.94;;;8.37;58.07
70229;BME280;57617;51.988;5.854;2023-04-27T00:18:02;101658.09;;;8.33;57.43
70229;BME280;57617;51.988;5.854;2023-04-27T00:20:28;101667.88;;;8.34;57.88
70229;BME280;57617;51.988;5.854;2023-04-27T00:22:53;101669.31;;;8.30;57.57
70229;BME280;57617;51.988;5.854;2023-04-27T00:25:18;101670.97;;;8.31;57.73
70229;BME280;57617;51.988;5.854;2023-04-27T00:27:44;101668.50;;;8.30;58.01
70229;BME280;57617;51.988;5.854;2023-04-27T00:30:09;101671.41;;;8.28;57.89
70229;BME280;57617;51.988;5.854;2023-04-27T00:32:35;101667.19;;;8.19;58.15
70229;BME280;57617;51.988;5.854;2023-04-27T00:35:00;101670.28;;;8.16;57.86
70229;BME280;57617;51.988;5.854;2023-04-27T00:37:25;101671.09;;;8.10;57.85
70229;BME280;57617;51.988;5.854;2023-04-27T00:39:50;101669.88;;;8.06;57.87
70229;BME280;57617;51.988;5.854;2023-04-27T00:42:16;101662.56;;;8.07;58.28
70229;BME280;57617;51.988;5.854;2023-04-27T00:44:44;101661.53;;;8.01;58.11
70229;BME280;57617;51.988;5.854;2023-04-27T00:47:10;101669.19;;;7.98;59.21
70229;BME280;57617;51.988;5.854;2023-04-27T00:49:36;101661.69;;;7.93;58.53
70229;BME280;57617;51.988;5.854;2023-04-27T00:52:01;101660.84;;;7.86;58.12
70229;BME280;57617;51.988;5.854;2023-04-27T00:54:27;101645.59;;;7.72;58.33
70229;BME280;57617;51.988;5.854;2023-04-27T00:56:53;101663.72;;;7.78;57.99
70229;BME280;57617;51.988;5.854;2023-04-27T00:59:19;101668.88;;;7.73;58.33
70229;BME280;57617;51.988;5.854;2023-04-27T01:01:51;101665.72;;;7.63;58.15
70229;BME280;57617;51.988;5.854;2023-04-27T01:04:17;101643.56;;;7.40;58.36
70229;BME280;57617;51.988;5.854;2023-04-27T01:06:42;101680.84;;;7.51;58.55
70229;BME280;57617;51.988;5.854;2023-04-27T01:09:07;101675.59;;;7.43;58.02
70229;BME280;57617;51.988;5.854;2023-04-27T01:11:33;101675.59;;;7.43;58.36
70229;BME280;57617;51.988;5.854;2023-04-27T01:14:03;101668.31;;;7.44;58.25
70229;BME280;57617;51.988;5.854;2023-04-27T01:16:28;101670.59;;;7.40;58.37
70229;BME280;57617;51.988;5.854;2023-04-27T01:18:54;101661.84;;;7.38;58.71
70229;BME280;57617;51.988;5.854;2023-04-27T01:21:19;101666.63;;;7.36;58.23
70229;BME280;57617;51.988;5.854;2023-04-27T01:23:44;101664.31;;;7.33;58.52
70229;BME280;57617;51.988;5.854;2023-04-27T01:26:10;101648.13;;;7.40;58.95
70229;BME280;57617;51.988;5.854;2023-04-27T01:28:37;101658.75;;;7.41;58.74
70229;BME280;57617;51.988;5.854;2023-04-27T01:31:02;101653.53;;;7.40;58.45
70229;BME280;57617;51.988;5.854;2023-04-27T01:33:28;101661.03;;;7.44;58.91
70229;BME280;57617;51.988;5.854;2023-04-27T01:35:53;101660.41;;;7.42;58.84
70229;BME280;57617;51.988;5.854;2023-04-27T01:38:18;101662.06;;;7.43;58.38
70229;BME280;57617;51.988;5.854;2023-04-27T01:40:44;101663.13;;;7.42;59.16
70229;BME280;57617;51.988;5.854;2023-04-27T01:43:09;101664.16;;;7.41;59.24
70229;BME280;57617;51.988;5.854;2023-04-27T01:45:34;101662.50;;;7.40;59.21
70229;BME280;57617;51.988;5.854;2023-04-27T01:48:00;101656.88;;;7.42;59.71
70229;BME280;57617;51.988;5.854;2023-04-27T01:50:25;101653.97;;;7.43;58.67
70229;BME280;57617;51.988;5.854;2023-04-27T01:52:51;101652.69;;;7.39;59.43
70229;BME280;57617;51.988;5.854;2023-04-27T01:55:16;101660.59;;;7.41;59.38
70229;BME280;57617;51.988;5.854;2023-04-27T01:57:42;101653.72;;;7.38;58.86
70229;BME280;57617;51.988;5.854;2023-04-27T02:00:07;101659.34;;;7.37;58.84
70229;BME280;57617;51.988;5.854;2023-04-27T02:02:33;101652.44;;;7.34;59.16
70229;BME280;57617;51.988;5.854;2023-04-27T02:04:58;101646.03;;;7.35;59.42
70229;BME280;57617;51.988;5.854;2023-04-27T02:07:23;101646.03;;;7.35;59.19
70229;BME280;57617;51.988;5.854;2023-04-27T02:09:49;101630.03;;;7.34;59.19
70229;BME280;57617;51.988;5.854;2023-04-27T02:12:14;101630.41;;;7.31;59.04
70229;BME280;57617;51.988;5.854;2023-04-27T02:14:39;101634.19;;;7.36;58.81
70229;BME280;57617;51.988;5.854;2023-04-27T02:17:05;101643.53;;;7.34;59.43
70229;BME280;57617;51.988;5.854;2023-04-27T02:19:30;101637.69;;;7.30;59.65
70229;BME280;57617;51.988;5.854;2023-04-27T02:21:56;101643.72;;;7.32;60.32
70229;BME280;57617;51.988;5.854;2023-04-27T02:24:21;101647.03;;;7.28;59.40
70229;BME280;57617;51.988;5.854;2023-04-27T02:26:46;101642.25;;;7.30;59.55
70229;BME280;57617;51.988;5.854;2023-04-27T02:29:12;101641.63;;;7.28;60.05
70229;BME280;57617;51.988;5.854;2023-04-27T02:31:37;101641.81;;;7.26;59.79
70229;BME280;57617;51.988;5.854;2023-04-27T02:34:02;101645.56;;;7.25;59.86
70229;BME280;57617;51.988;5.854;2023-04-27T02:36:28;101645.56;;;7.25;59.60
70229;BME280;57617;51.988;5.854;2023-04-27T02:38:54;101648.28;;;7.25;59.76
70229;BME280;57617;51.988;5.854;2023-04-27T02:41:19;101643.91;;;7.24;59.63
70229;BME280;57617;51.988;5.854;2023-04-27T02:43:45;101648.03;;;7.20;59.90
70229;BME280;57617;51.988;5.854;2023-04-27T02:46:11;101647.19;;;7.20;59.82
70229;BME280;57617;51.988;5.854;2023-04-27T02:48:36;101634.84;;;7.11;59.92
70229;BME280;57617;51.988;5.854;2023-04-27T02:51:02;101637.97;;;7.08;60.14
70229;BME280;57617;51.988;5.854;2023-04-27T02:53:28;101645.47;;;7.12;59.71
70229;BME280;57617;51.988;5.854;2023-04-27T02:55:53;101637.38;;;7.12;59.85
70229;BME280;57617;51.988;5.854;2023-04-27T02:58:19;101632.38;;;7.09;59.97
70229;BME280;57617;51.988;5.854;2023-04-27T03:00:44;101639.63;;;7.09;60.45
70229;BME280;57617;51.988;5.854;2023-04-27T03:03:09;101634.38;;;7.01;60.22
70229;BME280;57617;51.988;5.854;2023-04-27T03:05:35;101642.53;;;7.07;60.56
70229;BME280;57617;51.988;5.854;2023-04-27T03:08:01;101644.59;;;7.05;60.42
70229;BME280;57617;51.988;5.854;2023-04-27T03:10:26;101632.53;;;7.01;59.91
70229;BME280;57617;51.988;5.854;2023-04-27T03:12:51;101643.56;;;7.06;60.13
70229;BME280;57617;51.988;5.854;2023-04-27T03:15:17;101649.81;;;7.07;59.76
70229;BME280;57617;51.988;5.854;2023-04-27T03:17:42;101640.44;;;7.03;59.74
70229;BME280;57617;51.988;5.854;2023-04-27T03:20:08;101640.81;;;7.00;60.00
70229;BME280;57617;51.988;5.854;2023-04-27T03:22:34;101646.22;;;7.00;60.11
70229;BME280;57617;51.988;5.854;2023-04-27T03:25:00;101629.13;;;6.93;59.94
70229;BME280;57617;51.988;5.854;2023-04-27T03:27:25;101644.97;;;7.02;60.07
70229;BME280;57617;51.988;5.854;2023-04-27T03:29:51;101650.81;;;6.99;60.10
70229;BME280;57617;51.988;5.854;2023-04-27T03:32:19;101648.13;;;7.06;60.26
70229;BME280;57617;51.988;5.854;2023-04-27T03:34:45;101652.72;;;7.05;60.35
70229;BME280;57617;51.988;5.854;2023-04-27T03:37:11;101657.44;;;7.03;60.67
70229;BME280;57617;51.988;5.854;2023-04-27T03:39:36;101658.91;;;6.99;60.58
70229;BME280;57617;51.988;5.854;2023-04-27T03:42:01;101655.34;;;6.99;60.19
70229;BME280;57617;51.988;5.854;2023-04-27T03:44:27;101649.91;;;6.92;59.96
70229;BME280;57617;51.988;5.854;2023-04-27T03:46:52;101657.81;;;6.94;60.62
70229;BME280;57617;51.988;5.854;2023-04-27T03:49:18;101662.34;;;6.93;60.81
70229;BME280;57617;51.988;5.854;2023-04-27T03:51:43;101662.78;;;6.90;60.31
70229;BME280;57617;51.988;5.854;2023-04-27T03:54:08;101654.66;;;6.90;60.97
70229;BME280;57617;51.988;5.854;2023-04-27T03:56:34;101663.81;;;6.89;60.49
70229;BME280;57617;51.988;5.854;2023-04-27T03:58:59;101589.06;;;6.41;60.25
70229;BME280;57617;51.988;5.854;2023-04-27T04:01:25;101671.06;;;6.89;60.42
70229;BME280;57617;51.988;5.854;2023-04-27T04:03:50;101669.78;;;6.85;60.68
70229;BME280;57617;51.988;5.854;2023-04-27T04:06:15;101659.81;;;6.85;60.74
70229;BME280;57617;51.988;5.854;2023-04-27T04:08:41;101666.03;;;6.86;60.53
70229;BME280;57617;51.988;5.854;2023-04-27T04:11:06;101663.94;;;6.81;60.81
70229;BME280;57617;51.988;5.854;2023-04-27T04:13:31;101667.88;;;6.79;60.82
70229;BME280;57617;51.988;5.854;2023-04-27T04:16:04;101669.53;;;6.80;60.59
70229;BME280;57617;51.988;5.854;2023-04-27T04:18:30;101672.44;;;6.78;59.81
70229;BME280;57617;51.988;5.854;2023-04-27T04:20:55;101665.16;;;6.79;60.61
70229;BME280;57617;51.988;5.854;2023-04-27T04:23:21;101672.63;;;6.77;60.40
70229;BME280;57617;51.988;5.854;2023-04-27T04:25:46;101666.00;;;6.79;59.95
70229;BME280;57617;51.988;5.854;2023-04-27T04:28:12;101663.13;;;6.81;60.03
70229;BME280;57617;51.988;5.854;2023-04-27T04:30:38;101650.59;;;6.73;60.20
70229;BME280;57617;51.988;5.854;2023-04-27T04:33:03;101669.34;;;6.81;60.99
70229;BME280;57617;51.988;5.854;2023-04-27T04:35:29;101656.47;;;6.83;61.13
70229;BME280;57617;51.988;5.854;2023-04-27T04:37:57;101665.72;;;6.95;60.82
70229;BME280;57617;51.988;5.854;2023-04-27T04:40:22;101665.78;;;7.02;60.42
70229;BME280;57617;51.988;5.854;2023-04-27T04:42:48;101667.69;;;7.08;59.88
70229;BME280;57617;51.988;5.854;2023-04-27T04:45:13;101674.38;;;7.12;60.33
70229;BME280;57617;51.988;5.854;2023-04-27T04:47:39;101665.59;;;7.10;59.99
70229;BME280;57617;51.988;5.854;2023-04-27T04:50:06;101676.09;;;7.26;60.43
70229;BME280;57617;51.988;5.854;2023-04-27T04:52:32;101679.88;;;7.31;59.94
70229;BME280;57617;51.988;5.854;2023-04-27T04:54:58;101679.28;;;7.36;59.76
70229;BME280;57617;51.988;5.854;2023-04-27T04:57:23;101674.50;;;7.31;59.68
70229;BME280;57617;51.988;5.854;2023-04-27T04:59:49;101685.13;;;7.39;59.31
70229;BME280;57617;51.988;5.854;2023-04-27T05:02:14;101694.50;;;7.43;59.46
70229;BME280;57617;51.988;5.854;2023-04-27T05:04:40;101647.63;;;7.23;59.15
70229;BME280;57617;51.988;5.854;2023-04-27T05:07:05;101678.97;;;7.52;59.81
70229;BME280;57617;51.988;5.854;2023-04-27T05:09:30;101676.03;;;7.47;59.55
70229;BME280;57617;51.988;5.854;2023-04-27T05:11:56;101683.59;;;7.58;59.48
70229;BME280;57617;51.988;5.854;2023-04-27T05:14:21;101686.53;;;7.63;59.84
70229;BME280;57617;51.988;5.854;2023-04-27T05:16:46;101682.38;;;7.67;59.36
70229;BME280;57617;51.988;5.854;2023-04-27T05:19:13;101684.50;;;7.71;59.68
70229;BME280;57617;51.988;5.854;2023-04-27T05:21:42;101682.84;;;7.77;59.41
70229;BME280;57617;51.988;5.854;2023-04-27T05:24:08;101680.56;;;7.80;59.36
70229;BME280;57617;51.988;5.854;2023-04-27T05:26:33;101676.22;;;7.86;59.46
70229;BME280;57617;51.988;5.854;2023-04-27T05:28:58;101685.00;;;7.94;59.05
70229;BME280;57617;51.988;5.854;2023-04-27T05:31:24;101680.00;;;7.98;59.04
70229;BME280;57617;51.988;5.854;2023-04-27T05:33:50;101678.56;;;8.02;58.99
70229;BME280;57617;51.988;5.854;2023-04-27T05:36:15;101685.88;;;8.08;59.60
70229;BME280;57617;51.988;5.854;2023-04-27T05:38:40;101678.19;;;8.11;59.26
70229;BME280;57617;51.988;5.854;2023-04-27T05:41:07;101687.56;;;8.15;59.25
70229;BME280;57617;51.988;5.854;2023-04-27T05:43:32;101679.31;;;8.23;59.00
70229;BME280;57617;51.988;5.854;2023-04-27T05:45:59;101698.66;;;8.27;58.96
70229;BME280;57617;51.988;5.854;2023-04-27T05:48:24;101694.09;;;8.27;58.64
70229;BME280;57617;51.988;5.854;2023-04-27T05:51:01;101683.03;;;8.29;58.97
70229;BME280;57617;51.988;5.854;2023-04-27T05:53:27;101690.38;;;8.48;59.03
70229;BME280;57617;51.988;5.854;2023-04-27T05:55:53;101697.50;;;8.68;58.33
70229;BME280;57617;51.988;5.854;2023-04-27T05:58:18;101699.59;;;8.79;57.60
70229;BME280;57617;51.988;5.854;2023-04-27T06:00:44;101693.13;;;8.74;57.81
70229;BME280;57617;51.988;5.854;2023-04-27T06:03:09;101688.56;;;8.74;57.60
70229;BME280;57617;51.988;5.854;2023-04-27T06:05:34;101698.56;;;8.80;58.02
70229;BME280;57617;51.988;5.854;2023-04-27T06:07:59;101696.91;;;8.79;58.14
70229;BME280;57617;51.988;5.854;2023-04-27T06:10:25;101700.00;;;8.83;57.41
70229;BME280;57617;51.988;5.854;2023-04-27T06:12:50;101697.72;;;8.86;57.87
70229;BME280;57617;51.988;5.854;2023-04-27T06:15:15;101694.38;;;8.97;57.30
70229;BME280;57617;51.988;5.854;2023-04-27T06:17:41;101696.03;;;9.05;57.36
70229;BME280;57617;51.988;5.854;2023-04-27T06:20:08;101699.41;;;9.07;57.56
70229;BME280;57617;51.988;5.854;2023-04-27T06:22:35;101692.94;;;9.08;57.21
70229;BME280;57617;51.988;5.854;2023-04-27T06:25:06;101696.06;;;9.24;57.12
70229;BME280;57617;51.988;5.854;2023-04-27T06:27:32;101691.84;;;9.28;56.89
70229;BME280;57617;51.988;5.854;2023-04-27T06:29:58;101692.91;;;9.34;56.97
70229;BME280;57617;51.988;5.854;2023-04-27T06:32:23;101693.31;;;9.37;56.54
70229;BME280;57617;51.988;5.854;2023-04-27T06:34:49;101691.66;;;9.36;56.41
70229;BME280;57617;51.988;5.854;2023-04-27T06:37:14;101686.84;;;9.38;57.02
70229;BME280;57617;51.988;5.854;2023-04-27T06:39:42;101689.34;;;9.33;56.84
70229;BME280;57617;51.988;5.854;2023-04-27T06:42:07;101692.28;;;9.32;57.05
70229;BME280;57617;51.988;5.854;2023-04-27T06:44:32;101692.50;;;9.37;57.22
70229;BME280;57617;51.988;5.854;2023-04-27T06:46:58;101694.16;;;9.38;56.33
70229;BME280;57617;51.988;5.854;2023-04-27T06:49:23;101687.69;;;9.39;56.34
70229;BME280;57617;51.988;5.854;2023-04-27T06:51:49;101691.41;;;9.44;56.44
70229;BME280;57617;51.988;5.854;2023-04-27T06:54:14;101692.44;;;9.50;56.74
70229;BME280;57617;51.988;5.854;2023-04-27T06:56:40;101688.06;;;9.55;55.20
70229;BME280;57617;51.988;5.854;2023-04-27T06:59:06;101693.69;;;9.60;55.81
70229;BME280;57617;51.988;5.854;2023-04-27T07:01:32;101680.09;;;9.67;56.84
70229;BME280;57617;51.988;5.854;2023-04-27T07:03:57;101689.03;;;9.80;56.00
70229;BME280;57617;51.988;5.854;2023-04-27T07:06:23;101684.63;;;9.86;55.60
70229;BME280;57617;51.988;5.854;2023-04-27T07:08:49;101687.13;;;9.87;55.10
70229;BME280;57617;51.988;5.854;2023-04-27T07:11:15;101686.03;;;9.95;55.40
70229;BME280;57617;51.988;5.854;2023-04-27T07:13:40;101696.25;;;10.06;55.02
70229;BME280;57617;51.988;5.854;2023-04-27T07:16:06;101688.09;;;10.12;55.27
70229;BME280;57617;51.988;5.854;2023-04-27T07:18:31;101701.19;;;10.22;53.84
70229;BME280;57617;51.988;5.854;2023-04-27T07:20:56;101696.97;;;10.32;54.13
70229;BME280;57617;51.988;5.854;2023-04-27T07:23:22;101695.03;;;10.39;54.10
70229;BME280;57617;51.988;5.854;2023-04-27T07:25:48;101699.34;;;10.53;51.98
70229;BME280;57617;51.988;5.854;2023-04-27T07:28:13;101709.94;;;10.61;53.65
70229;BME280;57617;51.988;5.854;2023-04-27T07:30:39;101708.84;;;10.69;53.60
70229;BME280;57617;51.988;5.854;2023-04-27T07:33:06;101700.22;;;10.78;53.48
70229;BME280;57617;51.988;5.854;2023-04-27T07:35:31;101715.97;;;10.94;53.38
70229;BME280;57617;51.988;5.854;2023-04-27T07:37:58;101716.34;;;10.98;52.85
70229;BME280;57617;51.988;5.854;2023-04-27T07:40:24;101706.94;;;11.00;53.07
70229;BME280;57617;51.988;5.854;2023-04-27T07:42:50;101710.97;;;11.16;53.04
70229;BME280;57617;51.988;5.854;2023-04-27T07:45:15;101711.13;;;11.21;52.55
70229;BME280;57617;51.988;5.854;2023-04-27T07:47:44;101708.81;;;11.24;52.23
70229;BME280;57617;51.988;5.854;2023-04-27T07:50:10;101699.59;;;11.25;52.60
70229;BME280;57617;51.988;5.854;2023-04-27T07:52:36;101704.75;;;11.33;52.05
70229;BME280;57617;51.988;5.854;2023-04-27T07:55:02;101701.16;;;11.39;51.23
70229;BME280;57617;51.988;5.854;2023-04-27T07:57:28;101701.16;;;11.39;51.13
70229;BME280;57617;51.988;5.854;2023-04-27T07:59:53;101706.50;;;11.46;49.98
70229;BME280;57617;51.988;5.854;2023-04-27T08:02:19;101702.97;;;11.45;50.92
70229;BME280;57617;51.988;5.854;2023-04-27T08:04:44;101697.69;;;11.50;50.28
70229;BME280;57617;51.988;5.854;2023-04-27T08:07:10;101701.56;;;11.61;50.85
70229;BME280;57617;51.988;5.854;2023-04-27T08:09:35;101700.91;;;11.65;49.93
70229;BME280;57617;51.988;5.854;2023-04-27T08:12:01;101716.53;;;11.70;49.85
70229;BME280;57617;51.988;5.854;2023-04-27T08:14:27;101696.94;;;11.79;49.75
70229;BME280;57617;51.988;5.854;2023-04-27T08:16:52;101702.25;;;11.92;49.77
70229;BME280;57617;51.988;5.854;2023-04-27T08:19:17;101693.53;;;12.02;49.65
70229;BME280;57617;51.988;5.854;2023-04-27T08:21:43;101695.81;;;12.05;49.16
70229;BME280;57617;51.988;5.854;2023-04-27T08:24:08;101690.28;;;12.11;48.35
70229;BME280;57617;51.988;5.854;2023-04-27T08:26:33;101696.69;;;12.17;49.02
70229;BME280;57617;51.988;5.854;2023-04-27T08:29:00;101698.06;;;12.26;48.90
70229;BME280;57617;51.988;5.854;2023-04-27T08:31:25;101698.19;;;12.31;48.25
70229;BME280;57617;51.988;5.854;2023-04-27T08:33:55;101687.81;;;12.39;48.07
70229;BME280;57617;51.988;5.854;2023-04-27T08:36:21;101689.28;;;12.53;48.37
70229;BME280;57617;51.988;5.854;2023-04-27T08:38:51;101698.03;;;12.55;48.16
70229;BME280;57617;51.988;5.854;2023-04-27T08:41:20;101691.38;;;12.40;47.05
70229;BME280;57617;51.988;5.854;2023-04-27T08:43:46;101698.41;;;12.47;46.75
70229;BME280;57617;51.988;5.854;2023-04-27T08:46:17;101691.66;;;12.61;46.66
70229;BME280;57617;51.988;5.854;2023-04-27T08:48:43;101694.28;;;12.68;47.12
70229;BME280;57617;51.988;5.854;2023-04-27T08:51:09;101685.56;;;12.77;46.93
70229;BME280;57617;51.988;5.854;2023-04-27T08:53:35;101682.25;;;12.87;46.21
70229;BME280;57617;51.988;5.854;2023-04-27T08:56:00;101691.63;;;12.91;45.86
70229;BME280;57617;51.988;5.854;2023-04-27T08:58:35;101686.59;;;13.06;45.73
70229;BME280;57617;51.988;5.854;2023-04-27T09:01:04;101665.25;;;13.03;45.45
70229;BME280;57617;51.988;5.854;2023-04-27T09:03:30;101685.63;;;13.23;45.67
70229;BME280;57617;51.988;5.854;2023-04-27T09:05:56;101686.00;;;13.38;45.76
70229;BME280;57617;51.988;5.854;2023-04-27T09:08:21;101684.47;;;13.54;45.75
70229;BME280;57617;51.988;5.854;2023-04-27T09:10:49;101686.47;;;13.58;45.00
70229;BME280;57617;51.988;5.854;2023-04-27T09:13:15;101690.16;;;13.64;45.12
70229;BME280;57617;51.988;5.854;2023-04-27T09:15:48;101683.47;;;13.71;45.06
70229;BME280;57617;51.988;5.854;2023-04-27T09:18:16;101681.44;;;13.78;44.62
70229;BME280;57617;51.988;5.854;2023-04-27T09:20:43;101672.88;;;13.86;45.12
70229;BME280;57617;51.988;5.854;2023-04-27T09:23:08;101681.06;;;13.98;44.98
70229;BME280;57617;51.988;5.854;2023-04-27T09:25:34;101691.34;;;14.07;44.34
70229;BME280;57617;51.988;5.854;2023-04-27T09:28:00;101678.78;;;14.06;44.58
70229;BME280;57617;51.988;5.854;2023-04-27T09:30:27;101673.03;;;14.19;44.51
70229;BME280;57617;51.988;5.854;2023-04-27T09:35:25;101669.22;;;14.20;41.88
70229;BME280;57617;51.988;5.854;2023-04-27T09:37:52;101658.66;;;14.24;43.35
70229;BME280;57617;51.988;5.854;2023-04-27T09:40:19;101667.97;;;14.39;43.94
70229;BME280;57617;51.988;5.854;2023-04-27T09:42:47;101652.69;;;14.55;43.38
70229;BME280;57617;51.988;5.854;2023-04-27T09:45:13;101654.53;;;14.66;43.59
70229;BME280;57617;51.988;5.854;2023-04-27T09:47:39;101649.16;;;14.71;43.33
70229;BME280;57617;51.988;5.854;2023-04-27T09:50:05;101656.78;;;14.85;42.88
70229;BME280;57617;51.988;5.854;2023-04-27T09:52:32;101649.25;;;14.92;41.64
70229;BME280;57617;51.988;5.854;2023-04-27T09:54:57;101646.06;;;15.00;42.03
70229;BME280;57617;51.988;5.854;2023-04-27T10:00:12;101649.53;;;15.12;39.46
70229;BME280;57617;51.988;5.854;2023-04-27T10:08:37;101644.31;;;15.44;41.34
70229;BME280;57617;51.988;5.854;2023-04-27T10:11:16;101640.06;;;15.53;39.67
70229;BME280;57617;51.988;5.854;2023-04-27T10:13:53;101639.88;;;15.59;39.11
70229;BME280;57617;51.988;5.854;2023-04-27T10:16:19;101630.41;;;15.67;40.60
70229;BME280;57617;51.988;5.854;2023-04-27T10:18:54;101621.97;;;15.73;38.63
70229;BME280;57617;51.988;5.854;2023-04-27T10:21:20;101634.94;;;15.78;40.41
70229;BME280;57617;51.988;5.854;2023-04-27T10:23:50;101614.91;;;15.77;39.76
70229;BME280;57617;51.988;5.854;2023-04-27T10:26:26;101642.25;;;15.94;38.34
70229;BME280;57617;51.988;5.854;2023-04-27T10:29:04;101652.31;;;15.88;37.99
70229;BME280;57617;51.988;5.854;2023-04-27T10:31:31;101635.81;;;15.83;38.54
70229;BME280;57617;51.988;5.854;2023-04-27T10:34:14;101641.59;;;15.87;36.99
70229;BME280;57617;51.988;5.854;2023-04-27T10:36:40;101647.41;;;15.90;38.70
70229;BME280;57617;51.988;5.854;2023-04-27T10:39:15;101654.38;;;15.98;37.63
70229;BME280;57617;51.988;5.854;2023-04-27T10:41:49;101635.81;;;16.05;38.43
70229;BME280;57617;51.988;5.854;2023-04-27T10:44:27;101640.31;;;16.16;37.27
70229;BME280;57617;51.988;5.854;2023-04-27T10:46:58;101633.34;;;16.30;38.03
70229;BME280;57617;51.988;5.854;2023-04-27T10:49:28;101634.09;;;16.25;37.25
70229;BME280;57617;51.988;5.854;2023-04-27T10:51:57;101625.94;;;16.30;35.06
70229;BME280;57617;51.988;5.854;2023-04-27T10:54:27;101624.53;;;16.28;37.05
70229;BME280;57617;51.988;5.854;2023-04-27T10:56:53;101624.88;;;16.31;35.84
70229;BME280;57617;51.988;5.854;2023-04-27T10:59:19;101635.97;;;16.20;37.21
70229;BME280;57617;51.988;5.854;2023-04-27T11:01:47;101639.81;;;16.19;36.37
70229;BME280;57617;51.988;5.854;2023-04-27T11:04:13;101638.25;;;16.28;36.90
70229;BME280;57617;51.988;5.854;2023-04-27T11:06:44;101628.56;;;16.42;36.42
70229;BME280;57617;51.988;5.854;2023-04-27T11:09:12;101628.34;;;16.48;36.50
70229;BME280;57617;51.988;5.854;2023-04-27T11:11:42;101617.72;;;16.57;35.75
70229;BME280;57617;51.988;5.854;2023-04-27T11:14:08;101622.47;;;16.66;36.58
70229;BME280;57617;51.988;5.854;2023-04-27T11:16:33;101626.41;;;16.75;36.51
70229;BME280;57617;51.988;5.854;2023-04-27T11:19:04;101608.59;;;16.78;33.66
70229;BME280;57617;51.988;5.854;2023-04-27T11:21:32;101614.97;;;16.83;35.95
70229;BME280;57617;51.988;5.854;2023-04-27T11:24:07;101613.91;;;16.89;34.87
70229;BME280;57617;51.988;5.854;2023-04-27T11:26:34;101609.00;;;16.96;35.82
70229;BME280;57617;51.988;5.854;2023-04-27T11:29:00;101603.06;;;17.09;35.95
70229;BME280;57617;51.988;5.854;2023-04-27T11:31:27;101592.38;;;17.13;35.46
70229;BME280;57617;51.988;5.854;2023-04-27T11:34:02;101591.06;;;17.20;35.39
70229;BME280;57617;51.988;5.854;2023-04-27T11:36:27;101594.66;;;17.21;35.09
70229;BME280;57617;51.988;5.854;2023-04-27T11:38:56;101587.78;;;17.23;35.86
70229;BME280;57617;51.988;5.854;2023-04-27T11:41:21;101586.75;;;17.34;35.69
70229;BME280;57617;51.988;5.854;2023-04-27T11:43:47;101586.75;;;17.34;35.18
70229;BME280;57617;51.988;5.854;2023-04-27T11:46:13;101585.66;;;17.35;34.99
70229;BME280;57617;51.988;5.854;2023-04-27T11:48:39;101570.47;;;17.23;34.46
70229;BME280;57617;51.988;5.854;2023-04-27T11:51:05;101579.81;;;17.22;34.68
70229;BME280;57617;51.988;5.854;2023-04-27T11:53:32;101577.09;;;17.27;34.99
70229;BME280;57617;51.988;5.854;2023-04-27T11:55:59;101574.19;;;17.39;35.37
70229;BME280;57617;51.988;5.854;2023-04-27T11:58:27;101573.09;;;17.40;34.77
70229;BME280;57617;51.988;5.854;2023-04-27T12:00:55;101571.06;;;17.30;34.79
70229;BME280;57617;51.988;5.854;2023-04-27T12:03:21;101568.34;;;17.35;34.90
70229;BME280;57617;51.988;5.854;2023-04-27T12:05:50;101571.47;;;17.44;34.43
70229;BME280;57617;51.988;5.854;2023-04-27T12:08:16;101565.56;;;17.30;34.50
70229;BME280;57617;51.988;5.854;2023-04-27T12:10:44;101578.50;;;17.29;33.97
70229;BME280;57617;51.988;5.854;2023-04-27T12:13:10;101568.59;;;17.28;33.54
70229;BME280;57617;51.988;5.854;2023-04-27T12:15:36;101567.53;;;17.34;33.78
70229;BME280;57617;51.988;5.854;2023-04-27T12:18:02;101556.91;;;17.48;33.29
70229;BME280;57617;51.988;5.854;2023-04-27T12:20:27;101555.56;;;17.56;32.53
70229;BME280;57617;51.988;5.854;2023-04-27T12:22:53;101558.59;;;17.59;33.03
70229;BME280;57617;51.988;5.854;2023-04-27T12:25:18;101561.84;;;17.51;32.49
70229;BME280;57617;51.988;5.854;2023-04-27T12:27:44;101560.50;;;17.58;33.25
70229;BME280;57617;51.988;5.854;2023-04-27T12:30:12;101548.16;;;17.61;32.78
70229;BME280;57617;51.988;5.854;2023-04-27T12:32:37;101554.78;;;17.70;32.24
70229;BME280;57617;51.988;5.854;2023-04-27T12:35:04;101548.53;;;17.80;33.03
70229;BME280;57617;51.988;5.854;2023-04-27T12:37:30;101556.50;;;17.91;33.35
70229;BME280;57617;51.988;5.854;2023-04-27T12:39:55;101547.75;;;17.99;33.48
70229;BME280;57617;51.988;5.854;2023-04-27T12:42:20;101551.31;;;18.04;33.15
70229;BME280;57617;51.988;5.854;2023-04-27T12:44:48;101540.63;;;18.13;32.98
70229;BME280;57617;51.988;5.854;2023-04-27T12:47:13;101553.56;;;18.23;33.08
70229;BME280;57617;51.988;5.854;2023-04-27T12:49:38;101547.22;;;18.22;32.84
70229;BME280;57617;51.988;5.854;2023-04-27T12:52:04;101524.69;;;18.15;32.41
70229;BME280;57617;51.988;5.854;2023-04-27T12:54:29;101534.31;;;18.17;32.53
70229;BME280;57617;51.988;5.854;2023-04-27T12:56:55;101530.16;;;18.10;31.53
70229;BME280;57617;51.988;5.854;2023-04-27T12:59:20;101527.66;;;17.98;32.26
70229;BME280;57617;51.988;5.854;2023-04-27T13:01:45;101528.50;;;17.94;31.42